createdAt,value
2018-04-27T00:03:54.779Z,10.95
2018-04-27T00:09:45.476Z,17.26
2018-04-27T00:15:36.205Z,12.69
2018-04-27T00:21:26.941Z,12
2018-04-27T00:27:17.683Z,13.17
2018-04-27T00:33:08.354Z,10.13
2018-04-27T00:38:59.103Z,17.19
2018-04-27T00:44:49.906Z,11.3
2018-04-27T00:50:40.535Z,11.43
2018-04-27T00:56:31.257Z,11.64
2018-04-27T01:02:21.971Z,11.74
2018-04-27T01:08:12.710Z,11.43
2018-04-27T01:14:03.448Z,13.54
2018-04-27T01:19:54.132Z,11.27
2018-04-27T01:25:44.925Z,10.67
2018-04-27T01:31:35.600Z,12.36
2018-04-27T01:37:26.343Z,9.71
2018-04-27T01:43:17.055Z,13.05
2018-04-27T01:49:07.784Z,9.48
2018-04-27T01:54:58.489Z,15.02
2018-04-27T02:00:49.257Z,8.98
2018-04-27T02:06:39.987Z,12.23
2018-04-27T02:12:30.692Z,12.19
2018-04-27T02:18:21.389Z,14.15
2018-04-27T02:24:12.157Z,9
2018-04-27T02:30:02.853Z,9.51
2018-04-27T02:35:53.571Z,10.96
2018-04-27T02:41:44.301Z,11.45
2018-04-27T02:47:34.997Z,12.64
2018-04-27T02:53:25.735Z,15.3
2018-04-27T02:59:16.462Z,21.19
2018-04-27T03:05:07.149Z,11.77
2018-04-27T03:10:57.880Z,12.43
2018-04-27T03:16:48.629Z,7.98
2018-04-27T03:22:39.315Z,12.72
2018-04-27T03:28:30.050Z,13.71
2018-04-27T03:34:20.784Z,12.15
2018-04-27T03:40:11.474Z,15.43
2018-04-27T03:46:02.201Z,12.8
2018-04-27T03:51:53.010Z,15.69
2018-04-27T03:57:43.648Z,13.01
2018-04-27T04:03:34.351Z,12.98
2018-04-27T04:09:25.113Z,15.49
2018-04-27T04:15:15.857Z,12.13
2018-04-27T04:21:06.550Z,9.8
2018-04-27T04:26:57.304Z,14.12
2018-04-27T04:32:47.966Z,12.58
2018-04-27T04:38:38.722Z,11.02
2018-04-27T04:44:29.403Z,11.39
2018-04-27T04:50:20.113Z,16.74
2018-04-27T04:56:10.863Z,13.66
2018-04-27T05:02:01.557Z,16.56
2018-04-27T05:07:52.283Z,11.78
2018-04-27T05:13:43.007Z,13.42
2018-04-27T05:19:33.714Z,11.8
2018-04-27T05:25:24.429Z,11.11
2018-04-27T05:31:15.134Z,19.1
2018-04-27T05:37:05.883Z,14.86
2018-04-27T05:42:56.645Z,16.89
2018-04-27T05:48:47.333Z,12.3
2018-04-27T05:54:38.111Z,12.78
2018-04-27T06:00:28.733Z,12.74
2018-04-27T06:06:19.468Z,12.69
2018-04-27T06:12:10.163Z,13.25
2018-04-27T06:18:00.962Z,14.12
2018-04-27T06:23:51.693Z,18.11
2018-04-27T06:29:42.339Z,17.65
2018-04-27T06:35:33.050Z,15.34
2018-04-27T06:41:23.778Z,17.8
2018-04-27T06:47:14.511Z,18.84
2018-04-27T06:53:05.247Z,21.66
2018-04-27T06:58:55.902Z,25.17
2018-04-27T07:04:46.599Z,19.99
2018-04-27T07:10:37.340Z,21.58
2018-04-27T07:16:28.102Z,17.61
2018-04-27T07:22:18.884Z,24.98
2018-04-27T07:28:09.478Z,26.98
2018-04-27T07:34:00.261Z,23.69
2018-04-27T07:39:50.950Z,22.22
2018-04-27T07:45:41.645Z,27.82
2018-04-27T07:51:32.386Z,30.49
2018-04-27T07:57:23.130Z,25.48
2018-04-27T08:03:13.905Z,20.85
2018-04-27T08:09:04.550Z,28.54
2018-04-27T08:14:55.323Z,23.5
2018-04-27T08:20:46.022Z,24.69
2018-04-27T08:26:36.772Z,25.72
2018-04-27T08:32:27.480Z,27.56
2018-04-27T08:38:18.206Z,27.82
2018-04-27T08:44:08.945Z,18.42
2018-04-27T08:49:59.655Z,24.55
2018-04-27T08:55:50.348Z,23.3
2018-04-27T09:01:41.140Z,24.09
2018-04-27T09:07:31.850Z,24.75
2018-04-27T09:13:22.609Z,14.85
2018-04-27T09:19:13.288Z,16.5
2018-04-27T09:25:04.050Z,15.03
2018-04-27T09:30:54.781Z,13.55
2018-04-27T09:36:45.498Z,12.52
2018-04-27T09:42:36.233Z,12.53
2018-04-27T09:48:27.052Z,12.56
2018-04-27T09:54:17.745Z,9.74
2018-04-27T10:00:08.416Z,14.04
2018-04-27T10:05:59.232Z,10.32
2018-04-27T10:11:49.899Z,10.59
2018-04-27T10:17:40.672Z,7.82
2018-04-27T10:23:31.389Z,9.03
2018-04-27T10:29:22.176Z,7.63
2018-04-27T10:35:12.954Z,13.13
2018-04-27T10:41:03.643Z,5.65
2018-04-27T10:46:54.376Z,8.16
2018-04-27T10:52:45.176Z,7.03
2018-04-27T10:58:35.929Z,10.72
2018-04-27T11:04:26.669Z,6.28
2018-04-27T11:10:17.402Z,7.07
2018-04-27T11:16:08.124Z,8.85
2018-04-27T11:21:58.910Z,10.74
2018-04-27T11:27:49.644Z,8.49
2018-04-27T11:33:40.430Z,10.84
2018-04-27T11:39:31.217Z,10.27
2018-04-27T11:45:21.929Z,8.25
2018-04-27T11:51:12.689Z,7.31
2018-04-27T11:57:03.469Z,8.93
2018-04-27T12:02:54.187Z,10.87
2018-04-27T12:08:44.950Z,9.14
2018-04-27T12:14:35.750Z,14.63
2018-04-27T12:20:26.498Z,9.7
2018-04-27T12:26:17.247Z,7.2
2018-04-27T12:32:08.009Z,7.16
2018-04-27T12:37:58.809Z,9.41
2018-04-27T12:43:49.550Z,8.98
2018-04-27T12:49:40.302Z,7.01
2018-04-27T12:55:31.093Z,9.02
2018-04-27T13:01:21.857Z,8.64
2018-04-27T13:07:12.660Z,6.22
2018-04-27T13:13:03.434Z,8.71
2018-04-27T13:18:54.176Z,7.28
2018-04-27T13:24:44.940Z,8.02
2018-04-27T13:30:35.695Z,8.24
2018-04-27T13:36:26.495Z,7.67
2018-04-27T13:42:17.256Z,7.85
2018-04-27T13:48:08.072Z,10.15
2018-04-27T13:53:58.811Z,7.91
2018-04-27T13:59:49.564Z,8.57
2018-04-27T14:05:40.452Z,10.25
2018-04-27T14:11:31.107Z,8.85
2018-04-27T14:17:21.893Z,6.71
2018-04-27T14:23:12.700Z,7
2018-04-27T14:29:03.405Z,7.26
2018-04-27T14:34:54.236Z,9.16
2018-04-27T14:40:45.007Z,12.38
2018-04-27T14:46:35.853Z,8.52
2018-04-27T14:52:26.626Z,10.21
2018-04-27T14:58:17.310Z,11.6
2018-04-27T15:04:08.078Z,15.09
2018-04-27T15:09:58.926Z,11.99
2018-04-27T15:15:49.672Z,11.99
2018-04-27T15:21:40.438Z,9.32
2018-04-27T15:27:31.195Z,13.11
2018-04-27T15:33:21.965Z,27.26
2018-04-27T15:39:12.762Z,12.38
2018-04-27T15:45:03.523Z,16.43
2018-04-27T15:50:54.287Z,10.12
2018-04-27T15:56:45.041Z,11.92
2018-04-27T16:02:35.833Z,11.15
2018-04-27T16:08:26.567Z,11.73
2018-04-27T16:14:17.355Z,12.36
2018-04-27T16:20:08.058Z,18.08
2018-04-27T16:25:58.869Z,11.86
2018-04-27T16:31:49.635Z,14.47
2018-04-27T16:37:40.380Z,13.65
2018-04-27T16:43:31.143Z,17.13
2018-04-27T16:49:21.888Z,9.69
2018-04-27T16:55:12.661Z,8.95
2018-04-27T17:01:03.374Z,11.4
2018-04-27T17:06:54.119Z,10.97
2018-04-27T17:12:44.905Z,12.38
2018-04-27T17:18:35.696Z,9.67
2018-04-27T17:24:26.407Z,7.99
2018-04-27T17:30:17.143Z,12.53
2018-04-27T17:36:07.913Z,10.46
2018-04-27T17:41:58.674Z,12.94
2018-04-27T17:47:49.456Z,11.57
2018-04-27T17:53:40.187Z,10.68
2018-04-27T17:59:30.909Z,14.79
2018-04-27T18:05:21.687Z,13.18
2018-04-27T18:11:12.502Z,12.59
2018-04-27T18:17:03.208Z,19.25
2018-04-27T18:22:53.931Z,13.31
2018-04-27T18:28:44.710Z,16.39
2018-04-27T18:34:35.433Z,22.24
2018-04-27T18:40:26.192Z,26.87
2018-04-27T18:46:16.930Z,31.98
2018-04-27T18:52:07.755Z,22.74
2018-04-27T18:57:58.413Z,12.9
2018-04-27T19:03:49.176Z,10.3
2018-04-27T19:09:39.894Z,14.76
2018-04-27T19:15:30.662Z,16.04
2018-04-27T19:21:21.428Z,11.47
2018-04-27T19:27:12.192Z,12.07
2018-04-27T19:33:02.911Z,12.29
2018-04-27T19:38:53.665Z,13.51
2018-04-27T19:44:44.389Z,13.74
2018-04-27T19:50:35.110Z,11.52
2018-04-27T19:56:25.875Z,16.03
2018-04-27T20:02:16.625Z,16.1
2018-04-27T20:08:07.414Z,12.42
2018-04-27T20:13:58.236Z,13.43
2018-04-27T20:19:48.817Z,15.44
2018-04-27T20:25:39.589Z,14.55
2018-04-27T20:31:30.330Z,12.69
2018-04-27T20:37:21.046Z,19.97
2018-04-27T20:43:11.805Z,10.91
2018-04-27T20:49:02.510Z,11.47
2018-04-27T20:54:53.309Z,11.7
2018-04-27T21:00:44.029Z,13.09
2018-04-27T21:06:34.761Z,10.55
2018-04-27T21:12:25.498Z,11.7
2018-04-27T21:18:16.240Z,12.75
2018-04-27T21:24:06.927Z,11.45
2018-04-27T21:29:57.672Z,13.7
2018-04-27T21:35:48.433Z,16.45
2018-04-27T21:41:39.147Z,15.01
2018-04-27T21:47:29.986Z,12.6
2018-04-27T21:53:20.660Z,15.12
2018-04-27T21:59:11.427Z,11.23
2018-04-27T22:05:02.107Z,13.55
2018-04-27T22:10:52.856Z,17.93
2018-04-27T22:16:43.562Z,14.51
2018-04-27T22:22:34.352Z,7.61
2018-04-27T22:28:25.037Z,11.75
2018-04-27T22:34:15.802Z,9
2018-04-27T22:40:06.499Z,14.05
2018-04-27T22:45:57.273Z,11.57
2018-04-27T22:51:47.980Z,15.16
2018-04-27T22:57:38.734Z,10.73
2018-04-27T23:03:29.507Z,9.67
2018-04-27T23:09:20.169Z,12.44
2018-04-27T23:15:10.920Z,9.42
2018-04-27T23:21:01.690Z,12.63
2018-04-27T23:26:52.361Z,12.16
2018-04-27T23:32:43.145Z,17.73
2018-04-27T23:38:33.918Z,10.09
2018-04-27T23:44:24.589Z,12.38
2018-04-27T23:50:15.326Z,14.87
2018-04-27T23:56:06.093Z,15.37
